createdAt,value
2019-03-29T00:00:08.943Z,25.37
2019-03-29T00:02:39.806Z,26.27
2019-03-29T00:05:09.074Z,24.23
2019-03-29T00:07:40.014Z,24.67
2019-03-29T00:10:09.220Z,25.00
2019-03-29T00:12:38.463Z,24.53
2019-03-29T00:15:08.082Z,24.93
2019-03-29T00:17:37.582Z,23.97
2019-03-29T00:20:07.626Z,25.03
2019-03-29T00:22:36.881Z,25.97
2019-03-29T00:25:07.095Z,26.40
2019-03-29T00:27:36.630Z,24.07
2019-03-29T00:30:05.899Z,24.07
2019-03-29T00:32:35.147Z,26.80
2019-03-29T00:35:06.354Z,25.40
2019-03-29T00:37:35.593Z,23.33
2019-03-29T00:40:07.005Z,22.50
2019-03-29T00:42:36.278Z,24.07
2019-03-29T00:45:07.228Z,22.47
2019-03-29T00:47:36.470Z,24.47
2019-03-29T00:50:07.075Z,23.50
2019-03-29T00:52:36.529Z,26.27
2019-03-29T00:55:06.646Z,25.00
2019-03-29T00:57:35.918Z,24.10
2019-03-29T04:02:36.918Z,24.50
2019-03-29T04:05:07.369Z,23.40
2019-03-29T04:07:38.402Z,24.20
2019-03-29T04:10:07.625Z,23.07
2019-03-29T04:12:36.869Z,23.97
2019-03-29T04:15:06.408Z,25.40
2019-03-29T04:17:35.642Z,23.93
2019-03-29T04:20:06.555Z,24.77
2019-03-29T04:22:35.800Z,24.73
2019-03-29T04:25:06.513Z,24.63
2019-03-29T04:27:35.766Z,25.67
2019-03-29T04:30:05.770Z,23.87
2019-03-29T04:32:35.005Z,24.33
2019-03-29T04:35:04.379Z,23.43
2019-03-29T04:37:33.595Z,23.30
2019-03-29T04:40:08.094Z,22.37
2019-03-29T04:42:34.313Z,23.17
2019-03-29T04:45:04.945Z,23.00
2019-03-29T04:47:34.456Z,21.97
2019-03-29T04:50:05.575Z,22.37
2019-03-29T04:52:34.821Z,22.30
2019-03-29T04:55:05.604Z,20.83
2019-03-29T04:57:34.870Z,22.20
2019-03-29T05:00:05.755Z,21.73
2019-03-29T05:02:35.023Z,20.63
2019-03-29T05:05:05.801Z,20.07
2019-03-29T05:07:37.248Z,20.83
2019-03-29T05:10:20.259Z,20.13
2019-03-29T05:12:38.614Z,19.73
2019-03-29T05:15:07.857Z,19.13
2019-03-29T05:17:37.190Z,18.73
2019-03-29T05:20:06.884Z,16.60
2019-03-29T05:22:36.146Z,18.37
2019-03-29T05:25:05.862Z,14.80
2019-03-29T05:27:35.122Z,19.00
2019-03-29T05:30:05.611Z,17.40
2019-03-29T05:32:34.869Z,17.20
2019-03-29T05:35:05.750Z,18.97
2019-03-29T05:37:35.017Z,27.63
2019-03-29T05:40:06.597Z,35.13
2019-03-29T05:42:35.870Z,25.10
2019-03-29T05:45:06.691Z,20.80
2019-03-29T05:47:35.951Z,18.17
2019-03-29T05:50:06.830Z,16.63
2019-03-29T05:52:36.098Z,16.97
2019-03-29T05:55:06.534Z,18.00
2019-03-29T05:57:35.798Z,22.40
2019-03-29T06:00:09.801Z,18.23
2019-03-29T06:02:39.125Z,26.33
2019-03-29T06:05:08.367Z,27.00
2019-03-29T06:07:37.629Z,24.60
2019-03-29T06:10:06.875Z,23.60
2019-03-29T06:12:36.203Z,24.33
2019-03-29T06:15:06.486Z,18.93
2019-03-29T06:17:48.074Z,17.97
2019-03-29T06:20:06.632Z,17.60
2019-03-29T06:22:35.889Z,17.23
2019-03-29T06:25:06.700Z,18.37
2019-03-29T06:27:35.976Z,17.73
2019-03-29T06:30:06.455Z,19.13
2019-03-29T06:32:35.724Z,17.43
2019-03-29T06:35:07.693Z,19.53
2019-03-29T06:37:37.670Z,17.97
2019-03-29T06:40:09.839Z,17.50
2019-03-29T06:42:39.082Z,18.47
2019-03-29T06:45:09.973Z,15.73
2019-03-29T06:47:39.224Z,18.40
2019-03-29T06:50:08.486Z,17.73
2019-03-29T06:52:37.726Z,16.63
2019-03-29T06:55:06.998Z,15.83
2019-03-29T06:57:36.238Z,13.70
2019-03-29T07:00:05.774Z,15.37
2019-03-29T07:02:35.020Z,17.97
2019-03-29T07:05:05.525Z,19.00
2019-03-29T07:07:34.762Z,17.60
2019-03-29T07:10:05.975Z,14.87
2019-03-29T07:12:36.186Z,18.67
2019-03-29T07:15:08.374Z,20.90
2019-03-29T07:17:37.619Z,19.87
2019-03-29T07:20:07.251Z,14.67
2019-03-29T07:22:36.499Z,15.43
2019-03-29T07:25:07.869Z,14.77
2019-03-29T07:27:44.627Z,13.73
2019-03-29T07:30:08.062Z,11.50
2019-03-29T07:32:38.387Z,11.10
2019-03-29T07:35:07.646Z,9.30
2019-03-29T07:37:36.889Z,8.57
2019-03-29T07:40:06.159Z,9.23
2019-03-29T07:42:35.400Z,8.50
2019-03-29T07:45:10.057Z,9.83
2019-03-29T07:47:38.930Z,8.33
2019-03-29T07:50:08.199Z,7.83
2019-03-29T07:52:37.439Z,9.30
2019-03-29T07:55:07.338Z,7.63
2019-03-29T07:57:36.576Z,7.67
2019-03-29T08:00:07.235Z,7.37
2019-03-29T08:02:36.419Z,6.40
2019-03-29T08:05:06.244Z,7.50
2019-03-29T08:07:36.445Z,6.07
2019-03-29T08:10:06.275Z,5.03
2019-03-29T08:12:35.526Z,5.17
2019-03-29T08:15:09.268Z,4.67
2019-03-29T08:17:37.023Z,5.07
2019-03-29T08:20:37.571Z,4.73
2019-03-29T08:22:37.141Z,4.70
2019-03-29T08:25:06.411Z,3.87
2019-03-29T08:27:35.646Z,4.20
2019-03-29T08:30:05.549Z,3.80
2019-03-29T08:32:34.781Z,4.07
2019-03-29T08:35:05.687Z,3.60
2019-03-29T08:37:34.931Z,3.70
2019-03-29T08:40:04.835Z,3.73
2019-03-29T08:42:34.065Z,4.00
2019-03-29T08:45:04.062Z,3.27
2019-03-29T08:47:34.274Z,3.23
2019-03-29T08:50:05.499Z,3.73
2019-03-29T08:52:34.739Z,3.37
2019-03-29T08:55:05.714Z,2.77
2019-03-29T08:57:34.978Z,3.33
2019-03-29T09:00:06.254Z,3.17
2019-03-29T09:02:35.826Z,2.67
2019-03-29T09:05:05.439Z,2.57
2019-03-29T09:07:44.570Z,3.23
2019-03-29T09:10:08.893Z,3.27
2019-03-29T09:12:38.153Z,3.00
2019-03-29T09:15:07.389Z,2.93
2019-03-29T09:17:36.659Z,2.87
2019-03-29T09:20:05.907Z,3.00
2019-03-29T09:22:35.180Z,2.73
2019-03-29T09:25:05.454Z,2.40
2019-03-29T09:27:34.729Z,2.40
2019-03-29T09:30:05.577Z,2.70
2019-03-29T09:32:34.838Z,2.10
2019-03-29T09:35:05.115Z,2.10
2019-03-29T09:37:34.378Z,2.27
2019-03-29T09:40:04.654Z,2.30
2019-03-29T09:42:33.920Z,2.57
2019-03-29T09:45:03.830Z,2.03
2019-03-29T09:47:39.882Z,2.03
2019-03-29T09:50:06.312Z,2.30
2019-03-29T09:52:37.182Z,1.40
2019-03-29T09:55:06.427Z,1.80
2019-03-29T09:57:37.921Z,2.10
2019-03-29T10:00:17.901Z,1.80
2019-03-29T10:02:38.278Z,2.73
2019-03-29T10:05:07.511Z,2.43
2019-03-29T10:07:36.774Z,2.70
2019-03-29T10:10:25.443Z,2.20
2019-03-29T10:12:54.702Z,2.37
2019-03-29T10:15:23.947Z,2.97
2019-03-29T10:17:53.213Z,2.90
2019-03-29T10:20:23.429Z,3.10
2019-03-29T10:22:52.690Z,2.20
2019-03-29T10:25:21.933Z,2.57
2019-03-29T10:27:51.193Z,3.00
2019-03-29T10:30:46.682Z,2.50
2019-03-29T10:33:15.486Z,2.40
2019-03-29T10:35:52.153Z,2.80
2019-03-29T10:38:18.341Z,2.87
2019-03-29T10:40:46.478Z,2.80
2019-03-29T10:43:15.739Z,2.80
2019-03-29T10:45:44.979Z,3.20
2019-03-29T10:48:14.253Z,2.57
2019-03-29T10:50:43.491Z,2.87
2019-03-29T10:53:12.767Z,2.43
2019-03-29T10:55:42.003Z,2.23
2019-03-29T10:58:11.265Z,3.03
2019-03-29T11:00:40.950Z,2.73
2019-03-29T11:03:10.229Z,2.40
2019-03-29T11:05:39.450Z,2.63
2019-03-29T11:08:12.104Z,2.57
2019-03-29T11:10:40.718Z,2.40
2019-03-29T11:13:14.156Z,2.23
2019-03-29T11:15:40.833Z,2.03
2019-03-29T11:18:10.111Z,2.67
2019-03-29T11:20:39.354Z,2.67
2019-03-29T11:23:08.620Z,2.97
2019-03-29T11:25:37.858Z,2.73
2019-03-29T11:28:07.130Z,2.43
2019-03-29T11:30:42.458Z,2.57
2019-03-29T11:33:07.254Z,2.33
2019-03-29T11:35:36.498Z,2.57
2019-03-29T11:38:05.765Z,2.83
2019-03-29T11:40:35.184Z,2.90
2019-03-29T11:43:05.355Z,3.90
2019-03-29T11:45:34.529Z,2.57
2019-03-29T11:48:08.875Z,2.87
2019-03-29T11:50:34.918Z,3.03
2019-03-29T11:53:04.106Z,3.17
2019-03-29T11:55:33.602Z,3.30
2019-03-29T11:58:03.575Z,3.10
2019-03-29T12:00:35.142Z,3.43
2019-03-29T12:03:04.757Z,3.33
2019-03-29T12:05:36.200Z,3.80
2019-03-29T12:08:05.242Z,3.50
2019-03-29T12:10:34.507Z,3.47
2019-03-29T12:13:03.819Z,3.67
2019-03-29T12:15:33.252Z,3.60
2019-03-29T12:18:02.491Z,3.20
2019-03-29T12:20:31.753Z,2.77
2019-03-29T12:23:02.631Z,3.17
2019-03-29T12:25:44.919Z,3.90
2019-03-29T12:28:14.222Z,3.10
2019-03-29T12:30:43.486Z,2.70
2019-03-29T12:33:12.730Z,3.00
2019-03-29T12:35:41.987Z,3.10
2019-03-29T12:38:11.227Z,3.20
2019-03-29T12:40:40.491Z,2.87
2019-03-29T12:43:12.360Z,2.80
2019-03-29T12:45:40.607Z,2.90
2019-03-29T12:48:10.216Z,2.40
2019-03-29T12:50:39.478Z,2.30
2019-03-29T12:53:08.730Z,2.37
2019-03-29T12:55:37.991Z,2.60
2019-03-29T12:58:08.307Z,2.67
2019-03-29T13:00:37.565Z,2.60
2019-03-29T13:03:06.805Z,1.87
2019-03-29T13:05:36.071Z,2.10
2019-03-29T13:08:05.307Z,2.10
2019-03-29T13:10:34.574Z,1.77
2019-03-29T13:13:03.814Z,2.20
2019-03-29T13:15:33.070Z,2.03
2019-03-29T13:18:02.310Z,1.10
2019-03-29T13:20:31.570Z,1.70
2019-03-29T13:23:00.816Z,2.00
2019-03-29T13:25:30.079Z,1.80
2019-03-29T13:27:59.751Z,2.20
2019-03-29T13:30:29.086Z,2.07
2019-03-29T13:32:58.328Z,2.30
2019-03-29T13:35:28.540Z,2.13
2019-03-29T13:37:57.775Z,1.83
2019-03-29T13:40:27.049Z,2.10
2019-03-29T13:42:56.285Z,2.00
2019-03-29T13:45:27.879Z,2.47
2019-03-29T13:47:56.423Z,2.73
2019-03-29T13:50:25.682Z,2.37
2019-03-29T13:52:54.927Z,2.27
2019-03-29T13:55:24.186Z,2.23
2019-03-29T13:57:53.422Z,2.27
2019-03-29T14:00:22.684Z,2.23
2019-03-29T14:02:51.921Z,2.00
2019-03-29T14:05:21.177Z,1.90
2019-03-29T14:07:50.426Z,2.27
2019-03-29T14:10:19.686Z,2.77
2019-03-29T14:12:48.935Z,2.60
2019-03-29T14:15:18.198Z,2.73
2019-03-29T14:17:47.434Z,3.33
2019-03-29T14:20:21.481Z,3.30
2019-03-29T14:22:51.178Z,3.37
2019-03-29T14:25:20.438Z,3.83
2019-03-29T14:27:50.746Z,2.80
2019-03-29T14:30:20.011Z,2.60
2019-03-29T14:32:49.247Z,3.00
2019-03-29T14:35:18.759Z,4.00
2019-03-29T14:37:47.994Z,3.60
2019-03-29T14:40:17.233Z,3.50
2019-03-29T14:42:46.495Z,2.90
2019-03-29T14:45:15.802Z,2.50
2019-03-29T14:47:45.071Z,3.17
2019-03-29T14:50:14.306Z,3.07
2019-03-29T14:52:43.570Z,3.00
2019-03-29T14:55:12.814Z,12.17
2019-03-29T14:57:43.150Z,7.87
2019-03-29T15:00:12.869Z,5.03
2019-03-29T15:02:42.199Z,4.37
2019-03-29T15:05:11.437Z,3.83
2019-03-29T15:07:41.771Z,4.40
2019-03-29T15:10:23.255Z,4.80
2019-03-29T15:12:52.779Z,3.43
2019-03-29T15:15:22.026Z,3.60
2019-03-29T15:17:51.284Z,4.20
2019-03-29T15:20:20.531Z,3.60
2019-03-29T15:22:49.786Z,5.00
2019-03-29T15:25:19.025Z,3.07
2019-03-29T15:27:49.262Z,5.60
2019-03-29T15:30:18.511Z,5.97
2019-03-29T15:32:47.779Z,7.20
2019-03-29T15:35:17.027Z,5.27
2019-03-29T15:37:46.285Z,3.20
2019-03-29T15:40:15.825Z,4.20
2019-03-29T15:42:45.097Z,5.80
2019-03-29T15:45:20.164Z,4.60
2019-03-29T15:47:45.223Z,3.67
2019-03-29T15:50:14.462Z,6.03
2019-03-29T15:52:43.721Z,3.97
2019-03-29T15:55:12.966Z,3.63
2019-03-29T15:57:42.225Z,3.10
2019-03-29T16:00:11.642Z,3.80
2019-03-29T16:02:40.974Z,3.27
2019-03-29T16:05:10.214Z,4.13
2019-03-29T16:07:39.484Z,3.43
2019-03-29T16:10:08.724Z,3.50
2019-03-29T16:12:37.989Z,3.70
2019-03-29T16:15:07.231Z,3.60
2019-03-29T16:17:36.490Z,4.13
2019-03-29T16:20:08.389Z,3.10
2019-03-29T16:22:37.659Z,4.10
2019-03-29T16:25:07.262Z,4.57
2019-03-29T16:27:36.535Z,5.00
2019-03-29T16:30:06.539Z,3.50
2019-03-29T16:32:36.337Z,3.47
2019-03-29T16:35:08.528Z,3.47
2019-03-29T16:37:37.790Z,3.10
2019-03-29T16:40:07.675Z,3.30
2019-03-29T16:42:37.019Z,3.20
2019-03-29T16:45:06.965Z,3.50
2019-03-29T16:47:36.223Z,3.43
2019-03-29T16:50:06.835Z,3.17
2019-03-29T16:52:37.142Z,4.37
2019-03-29T16:55:13.418Z,3.30
2019-03-29T16:57:38.074Z,3.60
2019-03-29T17:00:12.417Z,4.53
2019-03-29T17:02:41.485Z,3.30
2019-03-29T17:05:12.083Z,3.03
2019-03-29T17:07:41.321Z,3.47
2019-03-29T17:10:10.586Z,2.70
2019-03-29T17:12:39.846Z,2.97
2019-03-29T17:15:09.098Z,3.13
2019-03-29T17:17:38.331Z,3.10
2019-03-29T17:20:07.602Z,2.80
2019-03-29T17:22:36.912Z,3.30
2019-03-29T17:25:06.859Z,3.10
2019-03-29T17:27:36.078Z,3.70
2019-03-29T17:30:08.378Z,3.73
2019-03-29T17:32:37.623Z,7.07
2019-03-29T17:35:07.855Z,4.73
2019-03-29T17:37:37.166Z,3.63
2019-03-29T17:40:07.708Z,3.53
2019-03-29T17:42:36.942Z,3.20
2019-03-29T17:45:07.658Z,2.97
2019-03-29T17:47:36.903Z,7.27
2019-03-29T17:50:06.235Z,5.73
2019-03-29T17:52:37.241Z,4.40
2019-03-29T17:55:06.572Z,3.73
2019-03-29T17:57:35.892Z,3.50
2019-03-29T18:00:12.621Z,3.30
2019-03-29T18:02:41.859Z,3.43
2019-03-29T18:05:11.050Z,3.40
2019-03-29T18:07:40.290Z,3.43
2019-03-29T18:10:09.558Z,3.30
2019-03-29T18:12:38.798Z,3.13
2019-03-29T18:15:09.270Z,4.87
2019-03-29T18:17:38.515Z,3.83
2019-03-29T18:20:08.317Z,12.13
2019-03-29T18:22:37.571Z,3.53
2019-03-29T18:25:07.196Z,3.37
2019-03-29T18:27:36.431Z,4.97
2019-03-29T18:30:11.142Z,20.90
2019-03-29T18:32:40.398Z,8.27
2019-03-29T18:35:09.830Z,4.63
2019-03-29T18:37:39.439Z,4.60
2019-03-29T18:40:14.715Z,5.93
2019-03-29T18:42:43.887Z,3.13
2019-03-29T18:45:13.151Z,4.83
2019-03-29T18:47:42.402Z,9.77
2019-03-29T18:50:11.682Z,26.03
2019-03-29T18:52:42.727Z,24.77
2019-03-29T18:55:11.822Z,11.23
2019-03-29T18:57:41.139Z,21.10
2019-03-29T19:00:10.409Z,24.87
2019-03-29T19:02:39.734Z,10.43
2019-03-29T19:05:14.283Z,7.40
2019-03-29T19:07:43.523Z,4.40
2019-03-29T19:10:12.934Z,4.10
2019-03-29T19:12:42.198Z,3.80
2019-03-29T19:15:11.442Z,6.00
2019-03-29T19:17:40.710Z,6.60
2019-03-29T19:20:10.988Z,3.33
2019-03-29T19:22:40.428Z,3.13
2019-03-29T19:25:09.667Z,3.13
2019-03-29T19:27:38.936Z,3.30
2019-03-29T19:30:11.117Z,2.90
2019-03-29T19:32:40.380Z,2.97
2019-03-29T19:35:10.587Z,3.00
2019-03-29T19:37:39.889Z,3.43
2019-03-29T19:40:09.155Z,3.20
2019-03-29T19:42:38.422Z,3.80
2019-03-29T19:45:09.874Z,4.10
2019-03-29T19:47:39.151Z,3.97
2019-03-29T19:50:08.382Z,5.67
2019-03-29T19:52:37.646Z,6.13
2019-03-29T19:55:06.897Z,7.60
2019-03-29T19:57:37.274Z,8.57
2019-03-29T20:00:09.943Z,11.27
2019-03-29T20:02:39.244Z,5.63
2019-03-29T20:05:11.814Z,4.13
2019-03-29T20:07:41.079Z,4.03
2019-03-29T20:10:10.326Z,7.87
2019-03-29T20:12:39.590Z,19.40
2019-03-29T20:15:08.777Z,10.30
2019-03-29T20:17:37.971Z,7.57
2019-03-29T20:20:07.215Z,12.23
2019-03-29T20:22:36.489Z,53.43
2019-03-29T20:25:06.371Z,19.67
2019-03-29T20:27:35.637Z,9.33
2019-03-29T20:30:07.290Z,11.90
2019-03-29T20:32:36.495Z,7.43
2019-03-29T20:35:06.814Z,3.90
2019-03-29T20:37:37.129Z,3.60
2019-03-29T20:40:08.537Z,6.73
2019-03-29T20:42:37.803Z,6.70
2019-03-29T20:45:09.751Z,5.47
2019-03-29T20:47:42.292Z,5.80
2019-03-29T20:50:09.878Z,5.17
2019-03-29T20:52:39.142Z,5.03
2019-03-29T20:55:08.310Z,4.93
2019-03-29T20:57:37.569Z,4.43
2019-03-29T21:00:07.173Z,4.70
2019-03-29T21:02:37.502Z,4.50
2019-03-29T21:05:06.813Z,4.60
2019-03-29T21:07:36.074Z,4.57
2019-03-29T21:10:08.390Z,5.90
2019-03-29T21:12:37.661Z,6.03
2019-03-29T21:15:08.046Z,7.20
2019-03-29T21:17:37.374Z,7.90
2019-03-29T21:20:07.585Z,7.93
2019-03-29T21:22:37.020Z,7.30
2019-03-29T21:25:06.729Z,5.80
2019-03-29T21:27:36.334Z,5.47
2019-03-29T21:30:08.210Z,4.60
2019-03-29T21:32:37.522Z,4.57
2019-03-29T21:35:07.407Z,5.97
2019-03-29T21:37:36.854Z,6.13
2019-03-29T21:40:09.050Z,6.07
2019-03-29T21:42:38.401Z,6.47
2019-03-29T21:45:08.050Z,6.27
2019-03-29T21:47:37.377Z,5.53
2019-03-29T21:50:08.598Z,5.00
2019-03-29T21:52:37.886Z,5.27
2019-03-29T21:55:07.435Z,5.43
2019-03-29T21:57:37.762Z,6.03
2019-03-29T22:00:09.834Z,5.67
2019-03-29T22:02:39.143Z,6.43
2019-03-29T22:05:10.432Z,5.47
2019-03-29T22:07:39.275Z,5.97
2019-03-29T22:10:08.543Z,6.73
2019-03-29T22:12:37.886Z,6.37
2019-03-29T22:15:08.845Z,6.03
2019-03-29T22:17:38.358Z,5.53
2019-03-29T22:20:08.193Z,5.27
2019-03-29T22:22:37.702Z,5.27
2019-03-29T22:25:07.630Z,5.13
2019-03-29T22:27:37.077Z,5.60
2019-03-29T22:30:08.938Z,6.33
2019-03-29T22:32:38.184Z,6.37
2019-03-29T22:35:07.817Z,6.33
2019-03-29T22:37:38.050Z,5.43
2019-03-29T22:40:08.100Z,5.70
2019-03-29T22:42:37.317Z,6.37
2019-03-29T22:45:07.217Z,6.47
2019-03-29T22:47:36.467Z,6.90
2019-03-29T22:50:06.567Z,6.80
2019-03-29T22:52:35.810Z,7.40
2019-03-29T22:55:06.726Z,6.10
2019-03-29T22:57:36.929Z,6.57
2019-03-29T23:00:18.590Z,7.33
2019-03-29T23:02:49.706Z,6.23
2019-03-29T23:05:18.965Z,6.50
2019-03-29T23:07:48.206Z,6.57
2019-03-29T23:10:17.466Z,6.77
2019-03-29T23:12:46.712Z,7.37
2019-03-29T23:15:15.977Z,7.27
2019-03-29T23:17:45.215Z,7.50
2019-03-29T23:20:15.401Z,7.30
2019-03-29T23:22:44.566Z,7.17
2019-03-29T23:25:14.202Z,8.73
2019-03-29T23:27:43.506Z,8.83
2019-03-29T23:30:12.767Z,8.37
2019-03-29T23:32:42.002Z,8.47
2019-03-29T23:35:11.263Z,7.97
2019-03-29T23:37:40.501Z,8.50
2019-03-29T23:40:09.838Z,7.70
2019-03-29T23:42:39.078Z,8.47
2019-03-29T23:45:08.358Z,8.30
2019-03-29T23:47:37.596Z,7.40
2019-03-29T23:50:06.834Z,8.20
2019-03-29T23:52:36.164Z,7.63
2019-03-29T23:55:06.414Z,7.33
2019-03-29T23:57:35.670Z,7.00
